sensor_id;sensor_type;location;lat;lon;timestamp;pressure;altitude;pressure_sealevel;temperature
20289;BMP180;10303;51.960;8.372;2022-11-23T00:01:36;98675.00;;;11.10
20289;BMP180;10303;51.960;8.372;2022-11-23T00:04:16;98688.00;;;11.10
20289;BMP180;10303;51.960;8.372;2022-11-23T00:06:42;98676.00;;;11.10
20289;BMP180;10303;51.960;8.372;2022-11-23T00:09:10;98676.00;;;11.10
20289;BMP180;10303;51.960;8.372;2022-11-23T00:11:43;98670.00;;;11.00
20289;BMP180;10303;51.960;8.372;2022-11-23T00:14:35;98674.00;;;11.00
20289;BMP180;10303;51.960;8.372;2022-11-23T00:17:01;98680.00;;;11.00
20289;BMP180;10303;51.960;8.372;2022-11-23T00:19:27;98685.00;;;11.10
20289;BMP180;10303;51.960;8.372;2022-11-23T00:21:59;98668.00;;;11.00
20289;BMP180;10303;51.960;8.372;2022-11-23T00:24:29;98690.00;;;11.10
20289;BMP180;10303;51.960;8.372;2022-11-23T00:26:55;98684.00;;;11.00
20289;BMP180;10303;51.960;8.372;2022-11-23T00:29:21;98682.00;;;11.00
20289;BMP180;10303;51.960;8.372;2022-11-23T00:31:47;98689.00;;;11.00
20289;BMP180;10303;51.960;8.372;2022-11-23T00:34:15;98688.00;;;11.00
20289;BMP180;10303;51.960;8.372;2022-11-23T00:36:41;98677.00;;;11.00
20289;BMP180;10303;51.960;8.372;2022-11-23T00:39:07;98669.00;;;11.00
20289;BMP180;10303;51.960;8.372;2022-11-23T00:47:32;98689.00;;;11.00
20289;BMP180;10303;51.960;8.372;2022-11-23T00:49:58;98688.00;;;11.00
20289;BMP180;10303;51.960;8.372;2022-11-23T00:58:01;98680.00;;;11.00
20289;BMP180;10303;51.960;8.372;2022-11-23T01:00:32;98676.00;;;11.00
20289;BMP180;10303;51.960;8.372;2022-11-23T01:03:22;98693.00;;;11.00
20289;BMP180;10303;51.960;8.372;2022-11-23T01:09:20;98686.00;;;11.10
20289;BMP180;10303;51.960;8.372;2022-11-23T01:11:49;98701.00;;;11.10
20289;BMP180;10303;51.960;8.372;2022-11-23T01:14:15;98697.00;;;11.10
20289;BMP180;10303;51.960;8.372;2022-11-23T01:16:46;98699.00;;;11.10
20289;BMP180;10303;51.960;8.372;2022-11-23T01:19:17;98696.00;;;11.10
20289;BMP180;10303;51.960;8.372;2022-11-23T01:21:49;98675.00;;;11.10
20289;BMP180;10303;51.960;8.372;2022-11-23T01:24:21;98676.00;;;11.10
20289;BMP180;10303;51.960;8.372;2022-11-23T01:27:11;98691.00;;;11.20
20289;BMP180;10303;51.960;8.372;2022-11-23T01:29:37;98696.00;;;11.20
20289;BMP180;10303;51.960;8.372;2022-11-23T01:32:04;98699.00;;;11.20
20289;BMP180;10303;51.960;8.372;2022-11-23T01:40:17;98707.00;;;11.30
20289;BMP180;10303;51.960;8.372;2022-11-23T01:42:59;98707.00;;;11.20
20289;BMP180;10303;51.960;8.372;2022-11-23T01:45:43;98705.00;;;11.30
20289;BMP180;10303;51.960;8.372;2022-11-23T01:48:29;98705.00;;;11.30
20289;BMP180;10303;51.960;8.372;2022-11-23T01:51:17;98704.00;;;11.30
20289;BMP180;10303;51.960;8.372;2022-11-23T01:54:31;98688.00;;;11.30
20289;BMP180;10303;51.960;8.372;2022-11-23T01:57:11;98705.00;;;11.30
20289;BMP180;10303;51.960;8.372;2022-11-23T01:59:42;98685.00;;;11.30
20289;BMP180;10303;51.960;8.372;2022-11-23T02:02:16;98702.00;;;11.40
20289;BMP180;10303;51.960;8.372;2022-11-23T02:04:54;98703.00;;;11.40
20289;BMP180;10303;51.960;8.372;2022-11-23T02:07:22;98701.00;;;11.40
20289;BMP180;10303;51.960;8.372;2022-11-23T02:09:51;98714.00;;;11.40
20289;BMP180;10303;51.960;8.372;2022-11-23T02:12:18;98708.00;;;11.40
20289;BMP180;10303;51.960;8.372;2022-11-23T02:14:45;98719.00;;;11.40
20289;BMP180;10303;51.960;8.372;2022-11-23T02:17:11;98714.00;;;11.50
20289;BMP180;10303;51.960;8.372;2022-11-23T02:26:24;98709.00;;;11.50
20289;BMP180;10303;51.960;8.372;2022-11-23T02:29:17;98714.00;;;11.50
20289;BMP180;10303;51.960;8.372;2022-11-23T02:31:48;98709.00;;;11.50
20289;BMP180;10303;51.960;8.372;2022-11-23T02:34:17;98715.00;;;11.60
20289;BMP180;10303;51.960;8.372;2022-11-23T02:37:22;98704.00;;;11.60
20289;BMP180;10303;51.960;8.372;2022-11-23T02:39:52;98711.00;;;11.60
20289;BMP180;10303;51.960;8.372;2022-11-23T02:48:09;98726.00;;;11.70
20289;BMP180;10303;51.960;8.372;2022-11-23T02:50:39;98717.00;;;11.70
20289;BMP180;10303;51.960;8.372;2022-11-23T02:53:06;98726.00;;;11.70
20289;BMP180;10303;51.960;8.372;2022-11-23T02:55:32;98719.00;;;11.80
20289;BMP180;10303;51.960;8.372;2022-11-23T02:58:00;98729.00;;;11.80
20289;BMP180;10303;51.960;8.372;2022-11-23T03:00:30;98737.00;;;11.80
20289;BMP180;10303;51.960;8.372;2022-11-23T03:03:00;98732.00;;;11.80
20289;BMP180;10303;51.960;8.372;2022-11-23T03:05:27;98724.00;;;11.90
20289;BMP180;10303;51.960;8.372;2022-11-23T03:07:53;98730.00;;;11.90
20289;BMP180;10303;51.960;8.372;2022-11-23T03:10:20;98738.00;;;11.90
20289;BMP180;10303;51.960;8.372;2022-11-23T03:12:54;98737.00;;;11.90
20289;BMP180;10303;51.960;8.372;2022-11-23T03:15:21;98733.00;;;11.90
20289;BMP180;10303;51.960;8.372;2022-11-23T03:17:47;98738.00;;;11.90
20289;BMP180;10303;51.960;8.372;2022-11-23T03:20:15;98745.00;;;12.00
20289;BMP180;10303;51.960;8.372;2022-11-23T03:22:44;98732.00;;;11.90
20289;BMP180;10303;51.960;8.372;2022-11-23T03:25:12;98737.00;;;12.00
20289;BMP180;10303;51.960;8.372;2022-11-23T03:27:39;98747.00;;;11.90
20289;BMP180;10303;51.960;8.372;2022-11-23T03:30:31;98747.00;;;11.90
20289;BMP180;10303;51.960;8.372;2022-11-23T03:32:57;98728.00;;;12.00
20289;BMP180;10303;51.960;8.372;2022-11-23T03:35:23;98744.00;;;12.00
20289;BMP180;10303;51.960;8.372;2022-11-23T03:38:08;98752.00;;;11.90
20289;BMP180;10303;51.960;8.372;2022-11-23T03:40:35;98748.00;;;11.90
20289;BMP180;10303;51.960;8.372;2022-11-23T03:43:15;98747.00;;;11.90
20289;BMP180;10303;51.960;8.372;2022-11-23T03:48:26;98755.00;;;11.90
20289;BMP180;10303;51.960;8.372;2022-11-23T03:50:55;98753.00;;;11.90
20289;BMP180;10303;51.960;8.372;2022-11-23T03:53:21;98753.00;;;11.80
20289;BMP180;10303;51.960;8.372;2022-11-23T03:55:49;98753.00;;;11.90
20289;BMP180;10303;51.960;8.372;2022-11-23T03:58:20;98761.00;;;11.90
20289;BMP180;10303;51.960;8.372;2022-11-23T04:00:47;98748.00;;;11.90
20289;BMP180;10303;51.960;8.372;2022-11-23T04:03:14;98744.00;;;11.80
20289;BMP180;10303;51.960;8.372;2022-11-23T04:05:59;98754.00;;;11.80
20289;BMP180;10303;51.960;8.372;2022-11-23T04:08:45;98752.00;;;11.80
20289;BMP180;10303;51.960;8.372;2022-11-23T04:11:19;98741.00;;;11.80
20289;BMP180;10303;51.960;8.372;2022-11-23T04:13:48;98747.00;;;11.80
20289;BMP180;10303;51.960;8.372;2022-11-23T04:16:14;98750.00;;;11.80
20289;BMP180;10303;51.960;8.372;2022-11-23T04:18:42;98735.00;;;11.80
20289;BMP180;10303;51.960;8.372;2022-11-23T04:21:11;98744.00;;;11.80
20289;BMP180;10303;51.960;8.372;2022-11-23T04:23:37;98753.00;;;11.70
20289;BMP180;10303;51.960;8.372;2022-11-23T04:26:06;98743.00;;;11.70
20289;BMP180;10303;51.960;8.372;2022-11-23T04:28:33;98744.00;;;11.70
20289;BMP180;10303;51.960;8.372;2022-11-23T04:31:00;98743.00;;;11.70
20289;BMP180;10303;51.960;8.372;2022-11-23T04:33:44;98755.00;;;11.60
20289;BMP180;10303;51.960;8.372;2022-11-23T04:36:12;98746.00;;;11.60
20289;BMP180;10303;51.960;8.372;2022-11-23T04:38:42;98746.00;;;11.60
20289;BMP180;10303;51.960;8.372;2022-11-23T04:41:09;98748.00;;;11.60
20289;BMP180;10303;51.960;8.372;2022-11-23T04:43:38;98749.00;;;11.60
20289;BMP180;10303;51.960;8.372;2022-11-23T04:46:05;98750.00;;;11.60
20289;BMP180;10303;51.960;8.372;2022-11-23T04:48:32;98735.00;;;11.50
20289;BMP180;10303;51.960;8.372;2022-11-23T04:50:58;98760.00;;;11.50
20289;BMP180;10303;51.960;8.372;2022-11-23T04:53:36;98745.00;;;11.50
20289;BMP180;10303;51.960;8.372;2022-11-23T04:56:04;98760.00;;;11.50
20289;BMP180;10303;51.960;8.372;2022-11-23T04:58:35;98763.00;;;11.50
20289;BMP180;10303;51.960;8.372;2022-11-23T05:01:11;98762.00;;;11.40
20289;BMP180;10303;51.960;8.372;2022-11-23T05:04:23;98764.00;;;11.40
20289;BMP180;10303;51.960;8.372;2022-11-23T05:06:50;98760.00;;;11.50
20289;BMP180;10303;51.960;8.372;2022-11-23T05:09:18;98743.00;;;11.40
20289;BMP180;10303;51.960;8.372;2022-11-23T05:12:06;98777.00;;;11.40
20289;BMP180;10303;51.960;8.372;2022-11-23T05:14:35;98773.00;;;11.40
20289;BMP180;10303;51.960;8.372;2022-11-23T05:17:10;98772.00;;;11.40
20289;BMP180;10303;51.960;8.372;2022-11-23T05:19:39;98774.00;;;11.40
20289;BMP180;10303;51.960;8.372;2022-11-23T05:22:07;98772.00;;;11.40
20289;BMP180;10303;51.960;8.372;2022-11-23T05:24:35;98771.00;;;11.40
20289;BMP180;10303;51.960;8.372;2022-11-23T05:27:07;98779.00;;;11.40
20289;BMP180;10303;51.960;8.372;2022-11-23T05:29:36;98746.00;;;11.40
20289;BMP180;10303;51.960;8.372;2022-11-23T05:32:05;98759.00;;;11.40
20289;BMP180;10303;51.960;8.372;2022-11-23T05:34:34;98766.00;;;11.40
20289;BMP180;10303;51.960;8.372;2022-11-23T05:37:11;98767.00;;;11.40
20289;BMP180;10303;51.960;8.372;2022-11-23T05:39:53;98765.00;;;11.40
20289;BMP180;10303;51.960;8.372;2022-11-23T05:42:20;98781.00;;;11.50
20289;BMP180;10303;51.960;8.372;2022-11-23T05:44:47;98785.00;;;11.40
20289;BMP180;10303;51.960;8.372;2022-11-23T05:47:19;98785.00;;;11.40
20289;BMP180;10303;51.960;8.372;2022-11-23T05:49:47;98798.00;;;11.40
20289;BMP180;10303;51.960;8.372;2022-11-23T05:52:17;98796.00;;;11.40
20289;BMP180;10303;51.960;8.372;2022-11-23T05:54:45;98782.00;;;11.50
20289;BMP180;10303;51.960;8.372;2022-11-23T05:57:13;98799.00;;;11.40
20289;BMP180;10303;51.960;8.372;2022-11-23T05:59:42;98774.00;;;11.40
20289;BMP180;10303;51.960;8.372;2022-11-23T06:02:14;98785.00;;;11.40
20289;BMP180;10303;51.960;8.372;2022-11-23T06:04:43;98778.00;;;11.40
20289;BMP180;10303;51.960;8.372;2022-11-23T06:07:14;98786.00;;;11.50
20289;BMP180;10303;51.960;8.372;2022-11-23T06:10:07;98783.00;;;11.50
20289;BMP180;10303;51.960;8.372;2022-11-23T06:12:36;98806.00;;;11.50
20289;BMP180;10303;51.960;8.372;2022-11-23T06:15:07;98795.00;;;11.50
20289;BMP180;10303;51.960;8.372;2022-11-23T06:17:37;98781.00;;;11.50
20289;BMP180;10303;51.960;8.372;2022-11-23T06:20:08;98798.00;;;11.50
20289;BMP180;10303;51.960;8.372;2022-11-23T06:22:39;98778.00;;;11.40
20289;BMP180;10303;51.960;8.372;2022-11-23T06:25:07;98776.00;;;11.50
20289;BMP180;10303;51.960;8.372;2022-11-23T06:30:26;98781.00;;;11.50
20289;BMP180;10303;51.960;8.372;2022-11-23T06:33:02;98779.00;;;11.40
20289;BMP180;10303;51.960;8.372;2022-11-23T06:35:32;98796.00;;;11.40
20289;BMP180;10303;51.960;8.372;2022-11-23T06:37:59;98797.00;;;11.50
20289;BMP180;10303;51.960;8.372;2022-11-23T06:40:26;98800.00;;;11.50
20289;BMP180;10303;51.960;8.372;2022-11-23T06:43:19;98792.00;;;11.50
20289;BMP180;10303;51.960;8.372;2022-11-23T07:33:11;98836.00;;;11.20
20289;BMP180;10303;51.960;8.372;2022-11-23T07:42:34;98846.00;;;11.20
20289;BMP180;10303;51.960;8.372;2022-11-23T07:45:08;98822.00;;;11.20
20289;BMP180;10303;51.960;8.372;2022-11-23T07:51:38;98850.00;;;11.30
20289;BMP180;10303;51.960;8.372;2022-11-23T08:13:49;98861.00;;;11.40
20289;BMP180;10303;51.960;8.372;2022-11-23T08:22:30;98865.00;;;11.60
20289;BMP180;10303;51.960;8.372;2022-11-23T08:28:03;98877.00;;;11.70
20289;BMP180;10303;51.960;8.372;2022-11-23T08:46:29;98876.00;;;11.80
20289;BMP180;10303;51.960;8.372;2022-11-23T08:56:12;98878.00;;;12.10
20289;BMP180;10303;51.960;8.372;2022-11-23T09:04:33;98883.00;;;12.70
20289;BMP180;10303;51.960;8.372;2022-11-23T09:10:06;98901.00;;;12.80
20289;BMP180;10303;51.960;8.372;2022-11-23T09:12:47;98901.00;;;12.80
20289;BMP180;10303;51.960;8.372;2022-11-23T10:24:18;98886.00;;;13.80
20289;BMP180;10303;51.960;8.372;2022-11-23T10:26:54;98880.00;;;13.90
20289;BMP180;10303;51.960;8.372;2022-11-23T10:29:34;98891.00;;;13.90
20289;BMP180;10303;51.960;8.372;2022-11-23T10:32:59;98880.00;;;14.00
20289;BMP180;10303;51.960;8.372;2022-11-23T10:36:23;98892.00;;;14.10
20289;BMP180;10303;51.960;8.372;2022-11-23T10:38:58;98880.00;;;14.10
20289;BMP180;10303;51.960;8.372;2022-11-23T10:41:30;98874.00;;;14.20
20289;BMP180;10303;51.960;8.372;2022-11-23T10:46:41;98882.00;;;14.90
20289;BMP180;10303;51.960;8.372;2022-11-23T10:55:05;98874.00;;;16.30
20289;BMP180;10303;51.960;8.372;2022-11-23T10:57:43;98880.00;;;16.70
20289;BMP180;10303;51.960;8.372;2022-11-23T11:02:57;98874.00;;;17.70
20289;BMP180;10303;51.960;8.372;2022-11-23T11:05:48;98876.00;;;18.20
20289;BMP180;10303;51.960;8.372;2022-11-23T11:08:24;98875.00;;;18.60
20289;BMP180;10303;51.960;8.372;2022-11-23T11:11:39;98886.00;;;18.90
20289;BMP180;10303;51.960;8.372;2022-11-23T11:14:25;98879.00;;;18.90
20289;BMP180;10303;51.960;8.372;2022-11-23T11:17:30;98873.00;;;18.80
20289;BMP180;10303;51.960;8.372;2022-11-23T11:20:33;98882.00;;;18.70
20289;BMP180;10303;51.960;8.372;2022-11-23T11:23:16;98868.00;;;18.80
20289;BMP180;10303;51.960;8.372;2022-11-23T11:25:49;98866.00;;;19.00
20289;BMP180;10303;51.960;8.372;2022-11-23T11:28:46;98879.00;;;19.20
20289;BMP180;10303;51.960;8.372;2022-11-23T11:34:54;98880.00;;;19.50
20289;BMP180;10303;51.960;8.372;2022-11-23T11:37:56;98876.00;;;19.70
20289;BMP180;10303;51.960;8.372;2022-11-23T11:40:56;98883.00;;;19.90
20289;BMP180;10303;51.960;8.372;2022-11-23T11:43:57;98892.00;;;19.90
20289;BMP180;10303;51.960;8.372;2022-11-23T11:46:36;98883.00;;;19.90
20289;BMP180;10303;51.960;8.372;2022-11-23T11:49:35;98863.00;;;20.00
20289;BMP180;10303;51.960;8.372;2022-11-23T11:52:43;98879.00;;;20.10
20289;BMP180;10303;51.960;8.372;2022-11-23T11:55:59;98872.00;;;20.10
20289;BMP180;10303;51.960;8.372;2022-11-23T11:59:30;98876.00;;;20.10
20289;BMP180;10303;51.960;8.372;2022-11-23T12:02:23;98876.00;;;20.10
20289;BMP180;10303;51.960;8.372;2022-11-23T12:05:29;98883.00;;;19.80
20289;BMP180;10303;51.960;8.372;2022-11-23T12:08:34;98873.00;;;19.50
20289;BMP180;10303;51.960;8.372;2022-11-23T12:11:23;98853.00;;;19.50
20289;BMP180;10303;51.960;8.372;2022-11-23T12:14:00;98850.00;;;19.60
20289;BMP180;10303;51.960;8.372;2022-11-23T12:22:38;98868.00;;;20.20
20289;BMP180;10303;51.960;8.372;2022-11-23T12:25:32;98850.00;;;19.80
20289;BMP180;10303;51.960;8.372;2022-11-23T12:31:35;98860.00;;;18.90
20289;BMP180;10303;51.960;8.372;2022-11-23T12:34:36;98839.00;;;18.80
20289;BMP180;10303;51.960;8.372;2022-11-23T12:38:40;98848.00;;;18.90
20289;BMP180;10303;51.960;8.372;2022-11-23T12:57:22;98827.00;;;19.70
20289;BMP180;10303;51.960;8.372;2022-11-23T13:00:16;98829.00;;;19.60
20289;BMP180;10303;51.960;8.372;2022-11-23T13:11:49;98828.00;;;19.30
20289;BMP180;10303;51.960;8.372;2022-11-23T13:14:56;98826.00;;;19.20
20289;BMP180;10303;51.960;8.372;2022-11-23T13:24:00;98837.00;;;18.70
20289;BMP180;10303;51.960;8.372;2022-11-23T13:26:28;98815.00;;;18.50
20289;BMP180;10303;51.960;8.372;2022-11-23T13:28:58;98826.00;;;18.30
20289;BMP180;10303;51.960;8.372;2022-11-23T13:38:18;98836.00;;;17.60
20289;BMP180;10303;51.960;8.372;2022-11-23T13:40:57;98845.00;;;17.50
20289;BMP180;10303;51.960;8.372;2022-11-23T13:43:31;98845.00;;;17.30
20289;BMP180;10303;51.960;8.372;2022-11-23T13:46:24;98821.00;;;17.10
20289;BMP180;10303;51.960;8.372;2022-11-23T13:50:08;98832.00;;;16.90
20289;BMP180;10303;51.960;8.372;2022-11-23T13:53:34;98850.00;;;16.80
20289;BMP180;10303;51.960;8.372;2022-11-23T13:56:46;98851.00;;;16.60
20289;BMP180;10303;51.960;8.372;2022-11-23T13:59:34;98833.00;;;16.50
20289;BMP180;10303;51.960;8.372;2022-11-23T14:10:28;98838.00;;;16.20
20289;BMP180;10303;51.960;8.372;2022-11-23T14:13:37;98825.00;;;16.20
20289;BMP180;10303;51.960;8.372;2022-11-23T14:16:12;98834.00;;;16.20
20289;BMP180;10303;51.960;8.372;2022-11-23T14:19:33;98820.00;;;16.10
20289;BMP180;10303;51.960;8.372;2022-11-23T14:32:38;98824.00;;;16.00
20289;BMP180;10303;51.960;8.372;2022-11-23T14:35:21;98825.00;;;15.90
20289;BMP180;10303;51.960;8.372;2022-11-23T14:41:39;98788.00;;;15.70
20289;BMP180;10303;51.960;8.372;2022-11-23T14:44:13;98791.00;;;15.60
20289;BMP180;10303;51.960;8.372;2022-11-23T14:47:03;98804.00;;;15.50
20289;BMP180;10303;51.960;8.372;2022-11-23T14:49:30;98799.00;;;15.50
20289;BMP180;10303;51.960;8.372;2022-11-23T14:51:58;98801.00;;;15.40
20289;BMP180;10303;51.960;8.372;2022-11-23T14:54:26;98787.00;;;15.30
20289;BMP180;10303;51.960;8.372;2022-11-23T14:57:00;98792.00;;;15.20
20289;BMP180;10303;51.960;8.372;2022-11-23T14:59:37;98795.00;;;15.10
20289;BMP180;10303;51.960;8.372;2022-11-23T15:02:21;98793.00;;;15.00
20289;BMP180;10303;51.960;8.372;2022-11-23T15:07:39;98799.00;;;14.90
20289;BMP180;10303;51.960;8.372;2022-11-23T15:12:47;98801.00;;;14.70
20289;BMP180;10303;51.960;8.372;2022-11-23T15:15:29;98802.00;;;14.50
20289;BMP180;10303;51.960;8.372;2022-11-23T15:18:00;98797.00;;;14.40
20289;BMP180;10303;51.960;8.372;2022-11-23T15:20:44;98793.00;;;14.30
20289;BMP180;10303;51.960;8.372;2022-11-23T15:23:23;98785.00;;;14.20
20289;BMP180;10303;51.960;8.372;2022-11-23T15:29:26;98796.00;;;13.90
20289;BMP180;10303;51.960;8.372;2022-11-23T15:31:52;98806.00;;;13.80
20289;BMP180;10303;51.960;8.372;2022-11-23T15:34:27;98811.00;;;13.70
20289;BMP180;10303;51.960;8.372;2022-11-23T15:37:03;98808.00;;;13.60
20289;BMP180;10303;51.960;8.372;2022-11-23T15:39:30;98833.00;;;13.60
20289;BMP180;10303;51.960;8.372;2022-11-23T15:41:56;98827.00;;;13.50
20289;BMP180;10303;51.960;8.372;2022-11-23T15:44:28;98831.00;;;13.40
20289;BMP180;10303;51.960;8.372;2022-11-23T15:47:46;98839.00;;;13.30
20289;BMP180;10303;51.960;8.372;2022-11-23T15:50:12;98838.00;;;13.30
20289;BMP180;10303;51.960;8.372;2022-11-23T15:52:41;98838.00;;;13.20
20289;BMP180;10303;51.960;8.372;2022-11-23T15:55:13;98841.00;;;13.20
20289;BMP180;10303;51.960;8.372;2022-11-23T15:57:42;98831.00;;;13.10
20289;BMP180;10303;51.960;8.372;2022-11-23T16:00:22;98847.00;;;13.10
20289;BMP180;10303;51.960;8.372;2022-11-23T16:08:42;98845.00;;;12.80
20289;BMP180;10303;51.960;8.372;2022-11-23T16:11:28;98857.00;;;12.70
20289;BMP180;10303;51.960;8.372;2022-11-23T16:14:19;98857.00;;;12.70
20289;BMP180;10303;51.960;8.372;2022-11-23T16:17:28;98861.00;;;12.60
20289;BMP180;10303;51.960;8.372;2022-11-23T16:31:58;98871.00;;;12.20
20289;BMP180;10303;51.960;8.372;2022-11-23T16:34:29;98888.00;;;12.20
20289;BMP180;10303;51.960;8.372;2022-11-23T16:37:02;98864.00;;;12.20
20289;BMP180;10303;51.960;8.372;2022-11-23T16:39:32;98890.00;;;12.10
20289;BMP180;10303;51.960;8.372;2022-11-23T17:04:09;98883.00;;;11.40
20289;BMP180;10303;51.960;8.372;2022-11-23T17:06:40;98876.00;;;11.40
20289;BMP180;10303;51.960;8.372;2022-11-23T17:09:10;98897.00;;;11.40
20289;BMP180;10303;51.960;8.372;2022-11-23T17:11:45;98886.00;;;11.30
20289;BMP180;10303;51.960;8.372;2022-11-23T17:14:23;98899.00;;;11.20
20289;BMP180;10303;51.960;8.372;2022-11-23T17:16:51;98912.00;;;11.30
20289;BMP180;10303;51.960;8.372;2022-11-23T17:22:18;98905.00;;;11.20
20289;BMP180;10303;51.960;8.372;2022-11-23T17:24:52;98909.00;;;11.20
20289;BMP180;10303;51.960;8.372;2022-11-23T17:27:41;98914.00;;;11.20
20289;BMP180;10303;51.960;8.372;2022-11-23T17:36:53;98925.00;;;11.10
20289;BMP180;10303;51.960;8.372;2022-11-23T17:39:26;98942.00;;;11.10
20289;BMP180;10303;51.960;8.372;2022-11-23T17:41:57;98946.00;;;11.10
20289;BMP180;10303;51.960;8.372;2022-11-23T17:44:33;98944.00;;;11.10
20289;BMP180;10303;51.960;8.372;2022-11-23T17:47:02;98961.00;;;11.20
20289;BMP180;10303;51.960;8.372;2022-11-23T17:49:33;98959.00;;;11.20
20289;BMP180;10303;51.960;8.372;2022-11-23T17:52:15;98962.00;;;11.10
20289;BMP180;10303;51.960;8.372;2022-11-23T18:09:03;98992.00;;;11.20
20289;BMP180;10303;51.960;8.372;2022-11-23T18:11:33;98982.00;;;11.10
20289;BMP180;10303;51.960;8.372;2022-11-23T18:14:01;98985.00;;;11.20
20289;BMP180;10303;51.960;8.372;2022-11-23T18:16:37;98993.00;;;11.10
20289;BMP180;10303;51.960;8.372;2022-11-23T20:28:36;99111.00;;;10.60
20289;BMP180;10303;51.960;8.372;2022-11-23T20:35:05;99089.00;;;10.60
20289;BMP180;10303;51.960;8.372;2022-11-23T23:39:02;99274.00;;;10.40
20289;BMP180;10303;51.960;8.372;2022-11-23T23:44:32;99270.00;;;10.40
20289;BMP180;10303;51.960;8.372;2022-11-23T23:49:47;99285.00;;;10.40
20289;BMP180;10303;51.960;8.372;2022-11-23T23:58:45;99270.00;;;10.20
